CheckWX is a tool to help pilots better visualize weather data.  It is not intended as a substitute for an official pre-flight weather briefing.

19:18:43 UTC

SCTB METAR
Eulogio Sánchez Airport
Santiago, Chile
Current

1 hour ago

SCTB 061800Z 21003KT CAVOK 28/05 Q1016
Observed
Apr-6 @ 18:00 UTC
Wind
  • 210° at 3 KTS
Visibility
10,000+ meters
Flight Rules
VFR
Cloud Levels
  • Clear skies
Temperature
28°C / 82°F
Dewpoint
C / 41°F
Humidity
23%
Altimeter
30" Hg
Pressure
1015.92 hPa
Previous

2 hours ago

SCTB 061700Z 22003KT CAVOK 26/06 Q1016
Observed
Apr-6 @ 17:00 UTC
Wind
  • 220° at 3 KTS
Visibility
10,000+ meters
Flight Rules
VFR
Cloud Levels
  • Clear skies
Temperature
26°C / 79°F
Dewpoint
C / 43°F
Humidity
28%
Altimeter
30" Hg
Pressure
1015.92 hPa
Previous

3 hours ago

SCTB 061600Z 19002KT CAVOK 24/06 Q1017
Observed
Apr-6 @ 16:00 UTC
Wind
  • 190° at 2 KTS
Visibility
10,000+ meters
Flight Rules
VFR
Cloud Levels
  • Clear skies
Temperature
24°C / 75°F
Dewpoint
C / 43°F
Humidity
31%
Altimeter
30.03" Hg
Pressure
1016.92 hPa